createdAt,value
2019-01-16T00:02:29.335Z,67.58
2019-01-16T00:05:21.406Z,67.35
2019-01-16T00:08:10.924Z,67.14
2019-01-16T00:10:57.221Z,67.46
2019-01-16T00:13:36.458Z,67.93
2019-01-16T00:16:27.075Z,67.87
2019-01-16T00:19:14.913Z,67.64
2019-01-16T00:22:05.582Z,68.32
2019-01-16T00:24:49.266Z,68.35
2019-01-16T00:27:41.113Z,68.21
2019-01-16T00:30:28.750Z,68.50
2019-01-16T00:33:03.814Z,69.04
2019-01-16T00:35:50.479Z,68.37
2019-01-16T00:38:37.181Z,69.06
2019-01-16T00:41:23.599Z,68.90
2019-01-16T00:44:09.699Z,68.74
2019-01-16T00:46:56.063Z,68.72
2019-01-16T00:49:49.813Z,68.35
2019-01-16T00:52:31.462Z,68.66
2019-01-16T00:55:18.797Z,68.33
2019-01-16T00:58:13.217Z,68.59
2019-01-16T01:00:48.535Z,69.05
2019-01-16T01:03:43.638Z,68.58
2019-01-16T01:06:34.565Z,68.37
2019-01-16T01:09:10.440Z,68.71
2019-01-16T01:11:56.961Z,68.99
2019-01-16T01:14:50.498Z,68.46
2019-01-16T01:17:33.103Z,69.04
2019-01-16T01:20:21.426Z,69.15
2019-01-16T01:23:05.095Z,68.58
2019-01-16T01:25:50.271Z,69.04
2019-01-16T01:28:42.513Z,68.78
2019-01-16T01:31:39.329Z,68.42
2019-01-16T01:34:26.969Z,68.80
2019-01-16T01:37:13.317Z,68.35
2019-01-16T01:40:05.381Z,67.75
2019-01-16T01:42:52.641Z,67.56
2019-01-16T01:45:49.083Z,67.70
2019-01-16T01:48:40.126Z,67.87
2019-01-16T01:51:26.156Z,68.10
2019-01-16T01:54:19.922Z,68.48
2019-01-16T01:57:08.300Z,67.47
2019-01-16T02:00:04.820Z,67.90
2019-01-16T02:03:11.850Z,67.89
2019-01-16T02:05:54.314Z,68.08
2019-01-16T02:08:41.479Z,67.74
2019-01-16T02:11:31.892Z,67.42
2019-01-16T02:14:19.476Z,68.04
2019-01-16T02:17:04.675Z,67.58
2019-01-16T02:19:53.277Z,67.47
2019-01-16T02:22:40.631Z,67.23
2019-01-16T02:25:22.078Z,67.88
2019-01-16T02:28:02.990Z,68.14
2019-01-16T02:30:41.811Z,68.22
2019-01-16T02:33:27.928Z,68.00
2019-01-16T02:36:18.015Z,67.79
2019-01-16T02:39:07.251Z,67.73
2019-01-16T02:41:58.990Z,67.46
2019-01-16T02:45:00.899Z,67.96
2019-01-16T02:47:49.118Z,68.53
2019-01-16T02:50:40.164Z,69.30
2019-01-16T02:53:30.864Z,70.11
2019-01-16T02:56:21.974Z,70.18
2019-01-16T02:59:15.007Z,70.91
2019-01-16T03:02:01.722Z,71.77
2019-01-16T03:04:52.240Z,71.46
2019-01-16T03:07:42.059Z,71.79
2019-01-16T03:10:39.285Z,72.51
2019-01-16T03:13:28.087Z,72.47
2019-01-16T03:16:14.632Z,73.22
2019-01-16T03:19:04.727Z,73.54
2019-01-16T03:21:52.804Z,73.10
2019-01-16T03:24:46.580Z,73.47
2019-01-16T03:27:34.059Z,73.34
2019-01-16T03:30:21.133Z,73.97
2019-01-16T03:33:24.048Z,74.21
2019-01-16T03:36:09.015Z,74.80
2019-01-16T03:38:57.602Z,74.80
2019-01-16T03:41:44.308Z,74.22
2019-01-16T03:44:44.268Z,73.90
2019-01-16T03:47:45.279Z,74.43
2019-01-16T03:50:31.817Z,74.76
2019-01-16T03:53:19.320Z,75.17
2019-01-16T03:55:58.649Z,75.23
2019-01-16T03:58:44.819Z,75.40
2019-01-16T04:01:31.956Z,75.47
2019-01-16T04:04:37.958Z,75.64
2019-01-16T04:07:28.540Z,75.99
2019-01-16T04:10:25.713Z,75.89
2019-01-16T04:13:17.390Z,76.07
2019-01-16T04:16:20.471Z,75.23
2019-01-16T04:19:08.292Z,74.98
2019-01-16T04:22:03.272Z,74.37
2019-01-16T04:24:43.945Z,74.74
2019-01-16T04:27:23.743Z,74.84
2019-01-16T04:30:09.455Z,74.77
2019-01-16T04:32:56.029Z,74.81
2019-01-16T04:35:44.546Z,74.38
2019-01-16T04:38:31.301Z,74.39
2019-01-16T04:41:18.335Z,74.11
2019-01-16T04:44:14.351Z,74.24
2019-01-16T04:47:08.497Z,74.28
2019-01-16T04:50:05.292Z,74.38
2019-01-16T04:53:11.391Z,74.06
2019-01-16T04:56:14.399Z,73.86
2019-01-16T04:59:11.010Z,74.41
2019-01-16T05:02:04.685Z,74.15
2019-01-16T05:05:01.695Z,73.87
2019-01-16T05:07:58.350Z,74.08
2019-01-16T05:10:40.315Z,73.89
2019-01-16T05:13:33.758Z,74.24
2019-01-16T05:16:09.729Z,73.54
2019-01-16T05:19:05.560Z,73.96
2019-01-16T05:21:43.676Z,73.76
2019-01-16T05:24:37.662Z,74.09
2019-01-16T05:27:24.409Z,74.37
2019-01-16T05:30:21.036Z,74.43
2019-01-16T05:33:07.315Z,74.43
2019-01-16T05:35:47.782Z,74.97
2019-01-16T05:38:35.758Z,75.49
2019-01-16T05:41:23.401Z,74.95
2019-01-16T05:44:12.246Z,75.01
2019-01-16T05:47:08.727Z,75.25
2019-01-16T05:50:00.253Z,75.34
2019-01-16T05:52:38.987Z,75.17
2019-01-16T05:55:20.102Z,75.74
2019-01-16T05:58:06.479Z,76.61
2019-01-16T06:00:47.265Z,76.73
2019-01-16T06:03:41.415Z,76.15
2019-01-16T06:06:28.359Z,76.08
2019-01-16T06:09:18.955Z,76.23
2019-01-16T06:12:06.957Z,76.71
2019-01-16T06:14:52.051Z,77.50
2019-01-16T06:17:39.655Z,77.23
2019-01-16T06:20:28.824Z,77.33
2019-01-16T06:23:12.846Z,77.67
2019-01-16T06:26:12.512Z,77.13
2019-01-16T06:29:15.492Z,77.57
2019-01-16T06:31:55.914Z,77.03
2019-01-16T06:34:46.316Z,76.58
2019-01-16T06:37:33.882Z,76.85
2019-01-16T06:40:20.431Z,76.87
2019-01-16T06:43:07.347Z,75.74
2019-01-16T06:45:53.521Z,76.05
2019-01-16T06:48:44.465Z,76.81
2019-01-16T06:51:38.419Z,77.32
2019-01-16T06:54:28.513Z,77.29
2019-01-16T06:57:14.813Z,77.48
2019-01-16T06:59:50.784Z,77.74
2019-01-16T07:02:37.547Z,77.62
2019-01-16T07:05:21.528Z,77.85
2019-01-16T07:08:07.582Z,77.95
2019-01-16T07:10:54.609Z,78.05
2019-01-16T07:13:45.085Z,77.49
2019-01-16T07:16:31.382Z,76.49
2019-01-16T07:19:21.438Z,76.66
2019-01-16T07:22:21.860Z,79.24
2019-01-16T07:25:21.404Z,77.58
2019-01-16T07:28:11.813Z,77.93
2019-01-16T07:30:58.096Z,77.32
2019-01-16T07:33:45.785Z,77.09
2019-01-16T07:36:45.475Z,77.48
2019-01-16T07:39:39.213Z,77.04
2019-01-16T07:42:37.406Z,76.79
2019-01-16T07:45:34.582Z,77.14
2019-01-16T07:48:37.339Z,76.97
2019-01-16T07:51:34.329Z,76.73
2019-01-16T07:54:28.000Z,76.48
2019-01-16T07:57:04.776Z,76.25
2019-01-16T08:00:04.591Z,76.43
2019-01-16T08:02:51.464Z,76.07
2019-01-16T08:05:37.730Z,76.00
2019-01-16T08:08:24.209Z,75.75
2019-01-16T08:11:15.588Z,75.87
2019-01-16T08:14:04.176Z,75.76
2019-01-16T08:16:57.647Z,75.13
2019-01-16T08:19:51.283Z,75.25
2019-01-16T08:22:48.143Z,75.53
2019-01-16T08:25:38.958Z,75.05
2019-01-16T08:28:29.805Z,75.14
2019-01-16T08:31:16.604Z,74.88
2019-01-16T08:34:03.526Z,75.17
2019-01-16T08:36:54.944Z,74.68
2019-01-16T08:39:46.353Z,74.05
2019-01-16T08:42:46.252Z,74.07
2019-01-16T08:45:50.081Z,73.23
2019-01-16T08:48:40.781Z,73.48
2019-01-16T08:51:27.021Z,72.67
2019-01-16T08:54:26.507Z,72.65
2019-01-16T08:57:29.201Z,72.77
2019-01-16T09:00:18.944Z,72.18
2019-01-16T09:02:57.751Z,72.37
2019-01-16T09:05:48.147Z,72.14
2019-01-16T09:08:34.293Z,72.40
2019-01-16T09:11:30.954Z,72.19
2019-01-16T09:14:12.745Z,71.80
2019-01-16T09:17:00.310Z,71.96
2019-01-16T09:19:46.516Z,71.95
2019-01-16T09:22:40.505Z,71.68
2019-01-16T09:25:34.250Z,70.78
2019-01-16T09:28:20.387Z,70.54
2019-01-16T09:31:07.972Z,70.05
2019-01-16T09:33:54.162Z,69.40
2019-01-16T09:36:44.489Z,68.97
2019-01-16T09:39:32.932Z,68.61
2019-01-16T09:42:20.658Z,68.18
2019-01-16T09:45:06.651Z,67.61
2019-01-16T09:48:06.550Z,66.91
2019-01-16T09:50:54.124Z,66.33
2019-01-16T09:53:40.552Z,66.32
2019-01-16T09:56:28.233Z,65.62
2019-01-16T09:59:24.572Z,65.46
2019-01-16T10:02:30.410Z,65.45
2019-01-16T10:05:16.447Z,66.21
2019-01-16T10:08:02.004Z,65.19
2019-01-16T10:10:43.080Z,64.91
2019-01-16T10:13:40.135Z,65.30
2019-01-16T10:16:36.787Z,64.86
2019-01-16T10:19:22.564Z,64.62
2019-01-16T10:22:14.510Z,64.33
2019-01-16T10:25:02.156Z,64.32
2019-01-16T10:27:49.384Z,64.71
2019-01-16T10:30:37.336Z,63.56
2019-01-16T10:33:23.776Z,64.50
2019-01-16T10:36:10.248Z,63.44
2019-01-16T10:39:04.042Z,62.53
2019-01-16T10:41:50.681Z,61.06
2019-01-16T10:44:34.243Z,60.97
2019-01-16T10:47:22.560Z,62.23
2019-01-16T10:50:09.435Z,61.82
2019-01-16T10:52:57.074Z,61.73
2019-01-16T10:55:45.312Z,61.25
2019-01-16T10:58:33.219Z,60.80
2019-01-16T11:01:12.312Z,60.83
2019-01-16T11:03:59.911Z,58.35
2019-01-16T11:06:46.277Z,58.77
2019-01-16T11:09:32.714Z,58.30
2019-01-16T11:12:29.566Z,58.10
2019-01-16T11:15:16.203Z,57.87
2019-01-16T11:18:19.464Z,58.00
2019-01-16T11:21:10.998Z,57.00
2019-01-16T11:23:58.413Z,57.02
2019-01-16T11:27:04.515Z,56.95
2019-01-16T11:30:11.353Z,55.92
2019-01-16T11:33:02.124Z,56.15
2019-01-16T11:35:48.455Z,54.74
2019-01-16T11:38:36.305Z,55.09
2019-01-16T11:41:26.660Z,54.67
2019-01-16T11:44:17.060Z,54.74
2019-01-16T11:47:04.039Z,53.63
2019-01-16T11:49:47.955Z,53.18
2019-01-16T11:52:50.665Z,53.48
2019-01-16T11:55:37.886Z,52.99
2019-01-16T11:58:25.487Z,53.92
2019-01-16T12:01:10.230Z,54.88
2019-01-16T12:04:09.895Z,53.87
2019-01-16T12:07:09.760Z,52.60
2019-01-16T12:10:12.967Z,51.74
2019-01-16T12:13:03.476Z,51.35
2019-01-16T12:15:56.913Z,52.00
2019-01-16T12:18:34.528Z,51.90
2019-01-16T12:21:40.222Z,52.41
2019-01-16T12:24:19.498Z,51.55
2019-01-16T12:27:06.046Z,49.96
2019-01-16T12:30:02.995Z,50.18
2019-01-16T12:32:51.960Z,50.72
2019-01-16T12:35:45.606Z,50.25
2019-01-16T12:38:24.344Z,49.56
2019-01-16T12:41:11.941Z,50.76
2019-01-16T12:44:03.230Z,50.89
2019-01-16T12:46:59.565Z,51.29
2019-01-16T12:49:45.529Z,51.11
2019-01-16T12:52:33.258Z,49.61
2019-01-16T12:55:19.752Z,48.18
2019-01-16T12:58:13.396Z,47.70
2019-01-16T13:00:56.754Z,48.43
2019-01-16T13:03:45.636Z,50.15
2019-01-16T13:06:31.951Z,49.16
2019-01-16T13:09:19.919Z,48.00
2019-01-16T13:12:11.951Z,48.07
2019-01-16T13:14:58.275Z,48.36
2019-01-16T13:17:48.955Z,47.63
2019-01-16T13:20:37.960Z,48.38
2019-01-16T13:23:35.273Z,47.80
2019-01-16T13:26:21.861Z,47.01
2019-01-16T13:29:09.919Z,47.09
2019-01-16T13:32:00.572Z,47.34
2019-01-16T13:35:01.051Z,46.75
2019-01-16T13:37:48.804Z,47.49
2019-01-16T13:40:55.352Z,45.64
2019-01-16T13:43:43.034Z,45.05
2019-01-16T13:46:30.634Z,45.04
2019-01-16T13:49:07.236Z,46.99
2019-01-16T13:51:46.420Z,46.95
2019-01-16T13:54:42.442Z,47.41
2019-01-16T13:57:28.855Z,46.95
2019-01-16T14:00:12.061Z,46.92
2019-01-16T14:02:46.615Z,47.02
2019-01-16T14:05:43.522Z,47.01
2019-01-16T14:08:22.813Z,46.58
2019-01-16T14:11:22.721Z,47.90
2019-01-16T14:14:10.569Z,48.21
2019-01-16T14:17:16.610Z,48.06
2019-01-16T14:20:04.281Z,48.50
2019-01-16T14:22:44.068Z,47.88
2019-01-16T14:25:33.868Z,48.72
2019-01-16T14:28:21.765Z,49.11
2019-01-16T14:31:08.136Z,48.59
2019-01-16T14:33:55.707Z,48.87
2019-01-16T14:36:52.470Z,49.21
2019-01-16T14:39:32.376Z,50.30
2019-01-16T14:42:21.350Z,49.84
2019-01-16T14:45:12.150Z,50.15
2019-01-16T14:48:09.218Z,49.62
2019-01-16T14:50:51.742Z,50.21
2019-01-16T14:53:35.978Z,50.24
2019-01-16T14:56:23.012Z,49.48
2019-01-16T14:59:06.486Z,50.51
2019-01-16T15:01:50.034Z,51.24
2019-01-16T15:04:33.720Z,50.50
2019-01-16T15:07:11.185Z,50.88
2019-01-16T15:09:52.688Z,51.16
2019-01-16T15:12:40.313Z,51.97
2019-01-16T15:15:21.357Z,51.70
2019-01-16T15:18:21.713Z,52.66
2019-01-16T15:21:12.349Z,52.37
2019-01-16T15:24:00.359Z,52.65
2019-01-16T15:26:46.600Z,53.46
2019-01-16T15:29:28.689Z,53.47
2019-01-16T15:32:34.742Z,53.93
2019-01-16T15:35:21.158Z,54.50
2019-01-16T15:38:09.880Z,54.70
2019-01-16T15:40:56.588Z,55.24
2019-01-16T15:43:58.267Z,56.51
2019-01-16T15:46:44.435Z,56.57
2019-01-16T15:49:38.203Z,56.95
2019-01-16T15:52:16.059Z,56.81
2019-01-16T15:54:58.636Z,56.96
2019-01-16T15:57:58.710Z,57.34
2019-01-16T16:00:44.288Z,57.18
2019-01-16T16:03:27.377Z,57.72
2019-01-16T16:06:15.131Z,57.50
2019-01-16T16:09:12.071Z,57.89
2019-01-16T16:11:58.380Z,58.78
2019-01-16T16:14:44.856Z,58.84
2019-01-16T16:17:30.413Z,58.57
2019-01-16T16:20:21.350Z,58.99
2019-01-16T16:23:01.898Z,59.05
2019-01-16T16:25:58.855Z,58.77
2019-01-16T16:28:45.340Z,59.03
2019-01-16T16:31:38.973Z,58.97
2019-01-16T16:34:30.219Z,59.63
2019-01-16T16:37:10.067Z,59.76
2019-01-16T16:40:12.819Z,59.69
2019-01-16T16:42:58.697Z,59.43
2019-01-16T16:45:47.195Z,59.07
2019-01-16T16:48:33.880Z,59.65
2019-01-16T16:51:39.617Z,60.15
2019-01-16T16:54:29.940Z,59.83
2019-01-16T16:57:11.616Z,59.88
2019-01-16T17:00:17.942Z,59.29
2019-01-16T17:03:11.686Z,59.54
2019-01-16T17:06:01.182Z,59.73
2019-01-16T17:08:47.582Z,59.81
2019-01-16T17:11:30.603Z,59.71
2019-01-16T17:14:18.129Z,59.67
2019-01-16T17:17:04.858Z,59.98
2019-01-16T17:19:56.236Z,59.82
2019-01-16T17:22:37.342Z,59.93
2019-01-16T17:25:21.799Z,60.12
2019-01-16T17:28:10.449Z,60.46
2019-01-16T17:30:54.471Z,60.46
2019-01-16T17:33:40.066Z,60.71
2019-01-16T17:36:27.782Z,60.55
2019-01-16T17:39:14.247Z,60.55
2019-01-16T17:42:07.680Z,60.42
2019-01-16T17:45:10.570Z,60.47
2019-01-16T17:48:01.421Z,61.24
2019-01-16T17:50:42.836Z,60.65
2019-01-16T17:53:23.817Z,61.00
2019-01-16T17:56:14.524Z,60.70
2019-01-16T17:59:00.898Z,60.69
2019-01-16T18:02:00.144Z,61.00
2019-01-16T18:04:47.704Z,61.72
2019-01-16T18:07:43.379Z,62.05
2019-01-16T18:10:37.639Z,62.58
2019-01-16T18:13:31.307Z,63.10
2019-01-16T18:16:21.597Z,63.34
2019-01-16T18:19:09.331Z,64.32
2019-01-16T18:21:47.786Z,64.09
2019-01-16T18:24:35.337Z,64.23
2019-01-16T18:27:21.898Z,64.09
2019-01-16T18:30:14.228Z,63.47
2019-01-16T18:33:02.889Z,64.59
2019-01-16T18:35:50.282Z,65.16
2019-01-16T18:38:36.915Z,65.12
2019-01-16T18:41:27.920Z,66.11
2019-01-16T18:44:04.689Z,66.69
2019-01-16T18:46:49.322Z,65.57
2019-01-16T18:49:27.666Z,66.83
2019-01-16T18:52:14.084Z,66.20
2019-01-16T18:54:55.798Z,66.86
2019-01-16T18:57:35.168Z,66.85
2019-01-16T19:00:33.317Z,66.69
2019-01-16T19:03:19.948Z,67.45
2019-01-16T19:06:06.531Z,67.38
2019-01-16T19:09:06.548Z,67.99
2019-01-16T19:12:06.633Z,68.38
2019-01-16T19:14:57.021Z,69.89
2019-01-16T19:17:37.783Z,68.98
2019-01-16T19:20:37.449Z,69.16
2019-01-16T19:23:17.910Z,68.72
2019-01-16T19:26:04.129Z,70.03
2019-01-16T19:28:54.520Z,69.16
2019-01-16T19:31:36.381Z,69.83
2019-01-16T19:34:30.330Z,69.45
2019-01-16T19:37:36.040Z,70.51
2019-01-16T19:40:29.350Z,70.16
2019-01-16T19:43:29.568Z,70.18
2019-01-16T19:46:16.930Z,68.85
2019-01-16T19:49:19.650Z,68.92
2019-01-16T19:52:00.904Z,67.48
2019-01-16T19:55:00.817Z,67.42
2019-01-16T19:57:42.211Z,65.03
2019-01-16T20:00:53.301Z,65.67
2019-01-16T20:03:39.791Z,64.58
2019-01-16T20:06:18.384Z,63.73
2019-01-16T20:09:11.646Z,65.36
2019-01-16T20:11:48.927Z,63.83
2019-01-16T20:14:39.680Z,63.71
2019-01-16T20:17:33.523Z,63.91
2019-01-16T20:20:30.258Z,64.10
2019-01-16T20:23:16.468Z,64.00
2019-01-16T20:25:59.127Z,64.14
2019-01-16T20:28:45.806Z,63.88
2019-01-16T20:31:45.035Z,63.03
2019-01-16T20:34:31.271Z,62.48
2019-01-16T20:37:21.901Z,62.84
2019-01-16T20:40:17.414Z,62.92
2019-01-16T20:43:23.420Z,63.05
2019-01-16T20:46:23.135Z,63.02
2019-01-16T20:49:13.605Z,62.60
2019-01-16T20:52:04.556Z,62.14
2019-01-16T20:55:01.080Z,61.67
2019-01-16T20:57:57.803Z,61.65
2019-01-16T21:00:49.109Z,61.69
2019-01-16T21:03:45.515Z,61.82
2019-01-16T21:06:32.701Z,61.74
2019-01-16T21:09:23.039Z,61.91
2019-01-16T21:12:19.606Z,61.83
2019-01-16T21:14:55.319Z,62.37
2019-01-16T21:17:36.635Z,61.95
2019-01-16T21:20:26.002Z,61.57
2019-01-16T21:23:26.260Z,61.93
2019-01-16T21:26:12.637Z,61.42
2019-01-16T21:28:59.137Z,61.44
2019-01-16T21:31:36.787Z,61.66
2019-01-16T21:34:27.106Z,61.47
2019-01-16T21:37:20.984Z,61.55
2019-01-16T21:40:07.539Z,61.41
2019-01-16T21:43:10.670Z,60.75
2019-01-16T21:46:04.520Z,60.95
2019-01-16T21:48:50.847Z,60.24
2019-01-16T21:51:38.406Z,59.96
2019-01-16T21:54:19.249Z,59.94
2019-01-16T21:57:13.275Z,59.85
2019-01-16T22:00:01.004Z,59.85
2019-01-16T22:02:48.822Z,59.87
2019-01-16T22:05:36.419Z,59.84
2019-01-16T22:08:22.868Z,59.85
2019-01-16T22:11:09.827Z,60.21
2019-01-16T22:13:56.901Z,60.29
2019-01-16T22:16:41.929Z,60.15
2019-01-16T22:19:28.000Z,60.44
2019-01-16T22:22:15.535Z,60.60
2019-01-16T22:25:02.104Z,60.62
2019-01-16T22:27:51.067Z,61.00
2019-01-16T22:30:47.428Z,60.89
2019-01-16T22:33:33.907Z,60.81
2019-01-16T22:36:24.393Z,61.05
2019-01-16T22:39:04.499Z,60.98
2019-01-16T22:41:59.503Z,61.09
2019-01-16T22:44:53.027Z,61.67
2019-01-16T22:47:40.217Z,62.30
2019-01-16T22:50:27.950Z,62.06
2019-01-16T22:53:14.474Z,62.50
2019-01-16T22:56:03.464Z,62.48
2019-01-16T22:58:57.259Z,62.99
2019-01-16T23:01:44.889Z,63.23
2019-01-16T23:04:31.292Z,63.12
2019-01-16T23:07:16.536Z,63.56
2019-01-16T23:10:07.780Z,64.19
2019-01-16T23:12:53.590Z,63.93
2019-01-16T23:15:32.629Z,63.46
2019-01-16T23:18:32.244Z,63.55
2019-01-16T23:21:18.469Z,63.63
2019-01-16T23:24:18.258Z,64.26
2019-01-16T23:27:20.938Z,64.25
2019-01-16T23:30:08.645Z,64.57
2019-01-16T23:32:56.112Z,64.51
2019-01-16T23:35:42.701Z,64.47
2019-01-16T23:38:33.313Z,64.13
2019-01-16T23:41:19.938Z,64.48
2019-01-16T23:44:13.921Z,64.52
2019-01-16T23:47:04.705Z,64.53
2019-01-16T23:49:51.430Z,64.91
2019-01-16T23:52:36.513Z,65.33
2019-01-16T23:55:29.085Z,65.21
2019-01-16T23:58:16.966Z,64.98
